Page Municipal Airport Page US
ICAO: KPGA
IATA: PGA
Category: Medium
Scheduled Services: No

Elevation: 4316 ft
TransAlt. 18000 ft.

Airport Communications:
ASOS:120.625
DENVER CNTR:127.55
PRESCOTT RDO:122.45
CTAF/UNICOM:122.8

KPGA Zoom In..

If Map Doesn't Load, Click Here

Runways:

(A) RW 07 length 2201 ft width 75 ft
---- / hdg 68

(B) RW 15 length 5950 ft width 150 ft
---- / hdg 156

(C) RW 25 length 2201 ft width 75 ft
---- / hdg 248

(D) RW 33 length 5950 ft width 150 ft
---- / hdg 336

Location; KPGA
Day. 21 / Time. 13.53 Zulu
* Altimeter: 30.17
* Temperature: 17° c. 62.6°f.
* Wind from: 000° Speed 00 kn.
Dewpoint: -07° c.
Visibility: 10 Statute Miles.
Clouds: Clear (automated report).

KPGA 211353Z AUTO 00000KT 10SM CLR 17/M07 A3017 RMK AO2 SLP158 T01671072 TSNO


Wind - Calm.

 
 
jpsmedia.com for Web Design worldairports.se 2018   terms of use